sensor_id;sensor_type;location;lat;lon;timestamp;P1;durP1;ratioP1;P2;durP2;ratioP2
16975;SDS011;8604;48.148;-1.786;2024-03-06T00:00:23;19.03;;;12.53;;
16975;SDS011;8604;48.148;-1.786;2024-03-06T00:02:52;18.57;;;12.33;;
16975;SDS011;8604;48.148;-1.786;2024-03-06T00:05:36;18.80;;;13.00;;
16975;SDS011;8604;48.148;-1.786;2024-03-06T00:08:06;20.87;;;14.97;;
16975;SDS011;8604;48.148;-1.786;2024-03-06T00:10:35;22.03;;;16.77;;
16975;SDS011;8604;48.148;-1.786;2024-03-06T00:13:18;20.60;;;15.20;;
16975;SDS011;8604;48.148;-1.786;2024-03-06T00:15:47;20.73;;;14.97;;
16975;SDS011;8604;48.148;-1.786;2024-03-06T00:18:15;21.23;;;15.97;;
16975;SDS011;8604;48.148;-1.786;2024-03-06T00:20:53;24.63;;;16.80;;
16975;SDS011;8604;48.148;-1.786;2024-03-06T00:23:23;21.00;;;15.50;;
16975;SDS011;8604;48.148;-1.786;2024-03-06T00:25:52;21.70;;;15.73;;
16975;SDS011;8604;48.148;-1.786;2024-03-06T00:28:29;20.90;;;15.27;;
16975;SDS011;8604;48.148;-1.786;2024-03-06T00:30:57;19.00;;;14.20;;
16975;SDS011;8604;48.148;-1.786;2024-03-06T00:33:26;17.83;;;12.50;;
16975;SDS011;8604;48.148;-1.786;2024-03-06T00:35:56;16.80;;;13.33;;
16975;SDS011;8604;48.148;-1.786;2024-03-06T00:38:26;18.87;;;13.23;;
16975;SDS011;8604;48.148;-1.786;2024-03-06T00:40:55;17.87;;;13.27;;
16975;SDS011;8604;48.148;-1.786;2024-03-06T00:43:26;19.50;;;12.57;;
16975;SDS011;8604;48.148;-1.786;2024-03-06T00:45:54;20.87;;;13.80;;
16975;SDS011;8604;48.148;-1.786;2024-03-06T00:48:23;20.33;;;13.77;;
16975;SDS011;8604;48.148;-1.786;2024-03-06T00:51:05;20.07;;;14.10;;
16975;SDS011;8604;48.148;-1.786;2024-03-06T00:53:35;17.60;;;11.73;;
16975;SDS011;8604;48.148;-1.786;2024-03-06T00:56:04;17.10;;;11.83;;
16975;SDS011;8604;48.148;-1.786;2024-03-06T00:58:35;17.10;;;12.10;;
16975;SDS011;8604;48.148;-1.786;2024-03-06T01:01:03;16.47;;;12.47;;
16975;SDS011;8604;48.148;-1.786;2024-03-06T01:03:32;17.80;;;11.73;;
16975;SDS011;8604;48.148;-1.786;2024-03-06T01:06:14;19.10;;;13.13;;
16975;SDS011;8604;48.148;-1.786;2024-03-06T01:08:44;15.90;;;12.17;;
16975;SDS011;8604;48.148;-1.786;2024-03-06T01:11:13;17.47;;;12.50;;
16975;SDS011;8604;48.148;-1.786;2024-03-06T01:13:46;16.77;;;12.30;;
16975;SDS011;8604;48.148;-1.786;2024-03-06T01:16:15;17.90;;;12.37;;
16975;SDS011;8604;48.148;-1.786;2024-03-06T01:18:43;17.43;;;12.93;;
16975;SDS011;8604;48.148;-1.786;2024-03-06T01:21:12;16.23;;;12.70;;
16975;SDS011;8604;48.148;-1.786;2024-03-06T01:23:56;16.67;;;12.73;;
16975;SDS011;8604;48.148;-1.786;2024-03-06T01:26:24;15.10;;;12.13;;
16975;SDS011;8604;48.148;-1.786;2024-03-06T01:28:53;16.27;;;12.20;;
16975;SDS011;8604;48.148;-1.786;2024-03-06T01:31:47;15.37;;;12.23;;
16975;SDS011;8604;48.148;-1.786;2024-03-06T01:34:15;17.77;;;12.67;;
16975;SDS011;8604;48.148;-1.786;2024-03-06T01:36:44;18.50;;;11.73;;
16975;SDS011;8604;48.148;-1.786;2024-03-06T01:39:16;16.57;;;11.00;;
16975;SDS011;8604;48.148;-1.786;2024-03-06T01:41:45;15.77;;;11.27;;
16975;SDS011;8604;48.148;-1.786;2024-03-06T01:44:14;16.57;;;10.37;;
16975;SDS011;8604;48.148;-1.786;2024-03-06T01:46:42;16.20;;;11.20;;
16975;SDS011;8604;48.148;-1.786;2024-03-06T01:49:11;17.53;;;11.90;;
16975;SDS011;8604;48.148;-1.786;2024-03-06T01:51:48;17.50;;;11.53;;
16975;SDS011;8604;48.148;-1.786;2024-03-06T01:54:21;19.07;;;12.03;;
16975;SDS011;8604;48.148;-1.786;2024-03-06T01:56:50;17.23;;;11.60;;
16975;SDS011;8604;48.148;-1.786;2024-03-06T01:59:20;17.47;;;11.10;;
16975;SDS011;8604;48.148;-1.786;2024-03-06T02:02:02;15.40;;;11.03;;
16975;SDS011;8604;48.148;-1.786;2024-03-06T02:04:31;14.30;;;10.47;;
16975;SDS011;8604;48.148;-1.786;2024-03-06T02:07:00;18.07;;;10.60;;
16975;SDS011;8604;48.148;-1.786;2024-03-06T02:09:31;14.07;;;9.70;;
16975;SDS011;8604;48.148;-1.786;2024-03-06T02:11:59;16.00;;;11.07;;
16975;SDS011;8604;48.148;-1.786;2024-03-06T02:14:28;13.27;;;10.57;;
16975;SDS011;8604;48.148;-1.786;2024-03-06T02:16:57;14.37;;;10.80;;
16975;SDS011;8604;48.148;-1.786;2024-03-06T02:19:36;16.07;;;11.33;;
16975;SDS011;8604;48.148;-1.786;2024-03-06T02:22:07;13.53;;;10.07;;
16975;SDS011;8604;48.148;-1.786;2024-03-06T02:24:36;15.30;;;11.13;;
16975;SDS011;8604;48.148;-1.786;2024-03-06T02:27:05;14.67;;;10.20;;
16975;SDS011;8604;48.148;-1.786;2024-03-06T02:29:34;13.77;;;10.47;;
16975;SDS011;8604;48.148;-1.786;2024-03-06T02:32:05;15.10;;;10.60;;
16975;SDS011;8604;48.148;-1.786;2024-03-06T02:34:33;16.90;;;11.57;;
16975;SDS011;8604;48.148;-1.786;2024-03-06T02:37:02;14.63;;;11.07;;
16975;SDS011;8604;48.148;-1.786;2024-03-06T02:39:31;16.73;;;11.20;;
16975;SDS011;8604;48.148;-1.786;2024-03-06T02:42:00;16.80;;;12.03;;
16975;SDS011;8604;48.148;-1.786;2024-03-06T02:44:29;15.27;;;11.63;;
16975;SDS011;8604;48.148;-1.786;2024-03-06T02:46:58;17.20;;;12.13;;
16975;SDS011;8604;48.148;-1.786;2024-03-06T02:49:26;15.10;;;11.10;;
16975;SDS011;8604;48.148;-1.786;2024-03-06T02:51:54;14.27;;;10.43;;
16975;SDS011;8604;48.148;-1.786;2024-03-06T02:54:24;15.00;;;10.40;;
16975;SDS011;8604;48.148;-1.786;2024-03-06T02:56:54;14.00;;;9.93;;
16975;SDS011;8604;48.148;-1.786;2024-03-06T02:59:22;15.73;;;12.27;;
16975;SDS011;8604;48.148;-1.786;2024-03-06T03:01:51;16.87;;;11.33;;
16975;SDS011;8604;48.148;-1.786;2024-03-06T03:04:19;14.93;;;11.67;;
16975;SDS011;8604;48.148;-1.786;2024-03-06T03:06:47;15.27;;;11.40;;
16975;SDS011;8604;48.148;-1.786;2024-03-06T03:09:16;16.83;;;12.00;;
16975;SDS011;8604;48.148;-1.786;2024-03-06T03:11:44;18.70;;;12.27;;
16975;SDS011;8604;48.148;-1.786;2024-03-06T03:14:14;17.50;;;12.50;;
16975;SDS011;8604;48.148;-1.786;2024-03-06T03:16:43;15.57;;;11.53;;
16975;SDS011;8604;48.148;-1.786;2024-03-06T03:19:12;16.83;;;12.17;;
16975;SDS011;8604;48.148;-1.786;2024-03-06T03:21:42;17.23;;;11.33;;
16975;SDS011;8604;48.148;-1.786;2024-03-06T03:24:11;17.50;;;12.80;;
16975;SDS011;8604;48.148;-1.786;2024-03-06T03:26:39;16.40;;;11.67;;
16975;SDS011;8604;48.148;-1.786;2024-03-06T03:29:08;17.23;;;11.77;;
16975;SDS011;8604;48.148;-1.786;2024-03-06T03:31:38;17.93;;;12.20;;
16975;SDS011;8604;48.148;-1.786;2024-03-06T03:34:07;16.23;;;11.27;;
16975;SDS011;8604;48.148;-1.786;2024-03-06T03:36:39;17.27;;;11.80;;
16975;SDS011;8604;48.148;-1.786;2024-03-06T03:39:09;16.27;;;11.27;;
16975;SDS011;8604;48.148;-1.786;2024-03-06T03:41:43;17.17;;;11.17;;
16975;SDS011;8604;48.148;-1.786;2024-03-06T03:44:13;15.27;;;11.50;;
16975;SDS011;8604;48.148;-1.786;2024-03-06T03:46:43;16.17;;;11.33;;
16975;SDS011;8604;48.148;-1.786;2024-03-06T03:49:12;15.00;;;10.80;;
16975;SDS011;8604;48.148;-1.786;2024-03-06T03:51:40;15.50;;;10.70;;
16975;SDS011;8604;48.148;-1.786;2024-03-06T03:54:08;15.00;;;10.00;;
16975;SDS011;8604;48.148;-1.786;2024-03-06T03:56:37;14.57;;;10.33;;
16975;SDS011;8604;48.148;-1.786;2024-03-06T03:59:05;14.80;;;10.43;;
16975;SDS011;8604;48.148;-1.786;2024-03-06T04:01:34;16.60;;;10.47;;
16975;SDS011;8604;48.148;-1.786;2024-03-06T04:04:04;18.40;;;11.93;;
16975;SDS011;8604;48.148;-1.786;2024-03-06T04:06:33;15.83;;;10.57;;
16975;SDS011;8604;48.148;-1.786;2024-03-06T04:09:02;15.53;;;11.27;;
16975;SDS011;8604;48.148;-1.786;2024-03-06T04:11:31;14.97;;;11.07;;
16975;SDS011;8604;48.148;-1.786;2024-03-06T04:14:01;16.30;;;10.83;;
16975;SDS011;8604;48.148;-1.786;2024-03-06T04:16:29;15.77;;;11.17;;
16975;SDS011;8604;48.148;-1.786;2024-03-06T04:19:00;15.53;;;10.83;;
16975;SDS011;8604;48.148;-1.786;2024-03-06T04:21:30;17.67;;;11.93;;
16975;SDS011;8604;48.148;-1.786;2024-03-06T04:23:58;18.67;;;11.47;;
16975;SDS011;8604;48.148;-1.786;2024-03-06T04:26:27;15.73;;;10.57;;
16975;SDS011;8604;48.148;-1.786;2024-03-06T04:28:55;13.73;;;9.93;;
16975;SDS011;8604;48.148;-1.786;2024-03-06T04:31:24;14.83;;;9.90;;
16975;SDS011;8604;48.148;-1.786;2024-03-06T04:33:52;14.50;;;10.07;;
16975;SDS011;8604;48.148;-1.786;2024-03-06T04:36:21;15.10;;;10.63;;
16975;SDS011;8604;48.148;-1.786;2024-03-06T04:38:51;14.00;;;8.97;;
16975;SDS011;8604;48.148;-1.786;2024-03-06T04:41:19;14.30;;;10.10;;
16975;SDS011;8604;48.148;-1.786;2024-03-06T04:43:47;14.13;;;9.97;;
16975;SDS011;8604;48.148;-1.786;2024-03-06T04:46:17;13.80;;;9.40;;
16975;SDS011;8604;48.148;-1.786;2024-03-06T04:48:46;13.00;;;10.07;;
16975;SDS011;8604;48.148;-1.786;2024-03-06T04:51:15;13.67;;;10.40;;
16975;SDS011;8604;48.148;-1.786;2024-03-06T04:53:46;14.03;;;9.23;;
16975;SDS011;8604;48.148;-1.786;2024-03-06T04:56:16;12.03;;;8.90;;
16975;SDS011;8604;48.148;-1.786;2024-03-06T04:58:47;12.87;;;9.37;;
16975;SDS011;8604;48.148;-1.786;2024-03-06T05:01:16;12.43;;;8.70;;
16975;SDS011;8604;48.148;-1.786;2024-03-06T05:03:44;12.70;;;8.87;;
16975;SDS011;8604;48.148;-1.786;2024-03-06T05:06:30;14.20;;;9.47;;
16975;SDS011;8604;48.148;-1.786;2024-03-06T05:09:16;13.17;;;8.70;;
16975;SDS011;8604;48.148;-1.786;2024-03-06T05:12:04;12.63;;;9.47;;
16975;SDS011;8604;48.148;-1.786;2024-03-06T05:14:50;14.60;;;8.90;;
16975;SDS011;8604;48.148;-1.786;2024-03-06T05:17:36;13.10;;;9.70;;
16975;SDS011;8604;48.148;-1.786;2024-03-06T05:20:22;19.13;;;12.63;;
16975;SDS011;8604;48.148;-1.786;2024-03-06T05:23:08;20.53;;;13.00;;
16975;SDS011;8604;48.148;-1.786;2024-03-06T05:25:54;21.93;;;15.07;;
16975;SDS011;8604;48.148;-1.786;2024-03-06T05:28:42;26.83;;;19.17;;
16975;SDS011;8604;48.148;-1.786;2024-03-06T05:31:28;23.23;;;15.40;;
16975;SDS011;8604;48.148;-1.786;2024-03-06T05:34:14;20.00;;;14.10;;
16975;SDS011;8604;48.148;-1.786;2024-03-06T05:36:59;17.67;;;12.03;;
16975;SDS011;8604;48.148;-1.786;2024-03-06T05:39:48;15.97;;;10.77;;
16975;SDS011;8604;48.148;-1.786;2024-03-06T05:42:34;15.40;;;10.40;;
16975;SDS011;8604;48.148;-1.786;2024-03-06T05:45:21;15.93;;;10.70;;
16975;SDS011;8604;48.148;-1.786;2024-03-06T05:48:07;14.90;;;11.17;;
16975;SDS011;8604;48.148;-1.786;2024-03-06T05:50:53;13.47;;;9.90;;
16975;SDS011;8604;48.148;-1.786;2024-03-06T05:53:39;14.97;;;10.17;;
16975;SDS011;8604;48.148;-1.786;2024-03-06T05:56:26;17.47;;;11.07;;
16975;SDS011;8604;48.148;-1.786;2024-03-06T05:59:12;15.63;;;10.50;;
16975;SDS011;8604;48.148;-1.786;2024-03-06T06:01:42;12.27;;;9.53;;
16975;SDS011;8604;48.148;-1.786;2024-03-06T06:04:10;12.07;;;9.63;;
16975;SDS011;8604;48.148;-1.786;2024-03-06T06:06:40;12.50;;;9.83;;
16975;SDS011;8604;48.148;-1.786;2024-03-06T06:09:08;13.07;;;9.70;;
16975;SDS011;8604;48.148;-1.786;2024-03-06T06:11:43;16.87;;;10.37;;
16975;SDS011;8604;48.148;-1.786;2024-03-06T06:14:11;13.43;;;9.90;;
16975;SDS011;8604;48.148;-1.786;2024-03-06T06:16:40;14.13;;;10.60;;
16975;SDS011;8604;48.148;-1.786;2024-03-06T06:19:10;19.87;;;11.43;;
16975;SDS011;8604;48.148;-1.786;2024-03-06T06:21:39;12.27;;;9.47;;
16975;SDS011;8604;48.148;-1.786;2024-03-06T06:24:07;13.97;;;9.83;;
16975;SDS011;8604;48.148;-1.786;2024-03-06T06:26:36;12.33;;;9.63;;
16975;SDS011;8604;48.148;-1.786;2024-03-06T06:29:05;14.03;;;9.20;;
16975;SDS011;8604;48.148;-1.786;2024-03-06T06:31:35;13.63;;;10.40;;
16975;SDS011;8604;48.148;-1.786;2024-03-06T06:34:05;14.07;;;10.30;;
16975;SDS011;8604;48.148;-1.786;2024-03-06T06:36:34;16.03;;;10.20;;
16975;SDS011;8604;48.148;-1.786;2024-03-06T06:39:04;14.77;;;10.10;;
16975;SDS011;8604;48.148;-1.786;2024-03-06T06:41:34;19.30;;;11.03;;
16975;SDS011;8604;48.148;-1.786;2024-03-06T06:44:03;12.30;;;9.70;;
16975;SDS011;8604;48.148;-1.786;2024-03-06T06:46:34;12.73;;;9.60;;
16975;SDS011;8604;48.148;-1.786;2024-03-06T16:43:27;4.37;;;1.60;;
16975;SDS011;8604;48.148;-1.786;2024-03-06T16:46:16;5.63;;;1.67;;
16975;SDS011;8604;48.148;-1.786;2024-03-06T16:48:45;5.87;;;1.90;;
16975;SDS011;8604;48.148;-1.786;2024-03-06T16:51:17;5.20;;;1.70;;
16975;SDS011;8604;48.148;-1.786;2024-03-06T16:53:46;4.97;;;2.20;;
16975;SDS011;8604;48.148;-1.786;2024-03-06T16:56:15;4.27;;;1.80;;
16975;SDS011;8604;48.148;-1.786;2024-03-06T16:58:47;6.30;;;3.20;;
16975;SDS011;8604;48.148;-1.786;2024-03-06T17:01:16;5.80;;;3.20;;
16975;SDS011;8604;48.148;-1.786;2024-03-06T17:03:45;5.53;;;2.00;;
16975;SDS011;8604;48.148;-1.786;2024-03-06T17:06:16;4.03;;;1.63;;
16975;SDS011;8604;48.148;-1.786;2024-03-06T17:08:45;5.17;;;2.00;;
16975;SDS011;8604;48.148;-1.786;2024-03-06T17:11:13;4.53;;;1.50;;
16975;SDS011;8604;48.148;-1.786;2024-03-06T17:13:42;5.70;;;2.40;;
16975;SDS011;8604;48.148;-1.786;2024-03-06T17:16:13;4.77;;;1.70;;
16975;SDS011;8604;48.148;-1.786;2024-03-06T17:18:41;5.33;;;1.70;;
16975;SDS011;8604;48.148;-1.786;2024-03-06T17:21:10;4.30;;;1.50;;
16975;SDS011;8604;48.148;-1.786;2024-03-06T17:23:39;4.30;;;1.50;;
16975;SDS011;8604;48.148;-1.786;2024-03-06T17:26:08;3.63;;;1.60;;
16975;SDS011;8604;48.148;-1.786;2024-03-06T17:28:39;6.37;;;2.20;;
16975;SDS011;8604;48.148;-1.786;2024-03-06T17:31:08;6.23;;;1.90;;
16975;SDS011;8604;48.148;-1.786;2024-03-06T17:33:39;5.30;;;2.33;;
16975;SDS011;8604;48.148;-1.786;2024-03-06T17:36:08;6.17;;;2.93;;
16975;SDS011;8604;48.148;-1.786;2024-03-06T17:38:37;8.13;;;2.93;;
16975;SDS011;8604;48.148;-1.786;2024-03-06T17:41:08;8.13;;;2.30;;
16975;SDS011;8604;48.148;-1.786;2024-03-06T17:43:37;6.20;;;1.90;;
16975;SDS011;8604;48.148;-1.786;2024-03-06T17:46:06;6.77;;;2.87;;
16975;SDS011;8604;48.148;-1.786;2024-03-06T17:48:35;4.67;;;2.10;;
16975;SDS011;8604;48.148;-1.786;2024-03-06T17:51:05;7.40;;;3.77;;
16975;SDS011;8604;48.148;-1.786;2024-03-06T17:53:34;7.00;;;3.43;;
16975;SDS011;8604;48.148;-1.786;2024-03-06T17:56:03;7.77;;;3.10;;
16975;SDS011;8604;48.148;-1.786;2024-03-06T17:58:33;7.73;;;3.33;;
16975;SDS011;8604;48.148;-1.786;2024-03-06T18:01:02;6.13;;;2.73;;
16975;SDS011;8604;48.148;-1.786;2024-03-06T18:03:31;6.70;;;2.83;;
16975;SDS011;8604;48.148;-1.786;2024-03-06T18:06:01;8.10;;;2.93;;
16975;SDS011;8604;48.148;-1.786;2024-03-06T18:08:31;4.97;;;2.37;;
16975;SDS011;8604;48.148;-1.786;2024-03-06T18:11:00;7.17;;;2.60;;
16975;SDS011;8604;48.148;-1.786;2024-03-06T18:13:29;8.23;;;2.97;;
16975;SDS011;8604;48.148;-1.786;2024-03-06T18:15:58;7.57;;;2.77;;
16975;SDS011;8604;48.148;-1.786;2024-03-06T18:18:29;6.27;;;3.07;;
16975;SDS011;8604;48.148;-1.786;2024-03-06T18:21:00;8.67;;;3.50;;
16975;SDS011;8604;48.148;-1.786;2024-03-06T18:23:31;11.07;;;5.80;;
16975;SDS011;8604;48.148;-1.786;2024-03-06T18:26:01;9.37;;;5.37;;
16975;SDS011;8604;48.148;-1.786;2024-03-06T18:28:30;11.13;;;6.77;;
16975;SDS011;8604;48.148;-1.786;2024-03-06T18:31:02;8.87;;;4.47;;
16975;SDS011;8604;48.148;-1.786;2024-03-06T18:33:44;8.93;;;4.67;;
